Alexandria, Tennessee
Current Conditions -  °F | °C
As of 12:53 AM on Monday 22 Dec 2014 (Local Time) from KBNA Reporting Station
Few Clouds Few Clouds  
Wind Chill: 37°   Ceiling: Unl
Heat Index: 42°   Visibility: 10mi
Dew Point: 39°   Wind: 9mph
Humidity: 89%   Direction: 160°SSE
Pressure: 30"   Gusts: NA
Location:  36.08°N, 86.03°W
Report Text: KBNA 220653Z 16008KT 10SM FEW200 06/04 A3000 RMK AO2 SLP158 T00560039
Loading
Personal Weather Stations






























Interactive Weather Map New forecast layout! Learn more

10-Day Weather Forecast

Advertisements
Track Severe Weather on mobile